createdAt,value
2022-11-08T05:09:01.566Z,2.70
2022-11-08T05:11:29.802Z,2.55
2022-11-08T05:13:56.997Z,2.28
2022-11-08T05:16:26.132Z,2.75
2022-11-08T05:18:53.226Z,2.53
2022-11-08T05:21:40.393Z,2.40
2022-11-08T05:24:08.761Z,2.58
2022-11-08T05:26:37.604Z,2.83
2022-11-08T05:29:04.995Z,2.88
2022-11-08T05:31:31.930Z,2.60
2022-11-08T05:34:00.123Z,2.28
2022-11-08T05:36:27.588Z,2.83
2022-11-08T05:38:55.015Z,2.85
2022-11-08T05:41:23.363Z,2.42
2022-11-08T05:43:52.372Z,2.33
2022-11-08T05:46:20.487Z,3.00
2022-11-08T05:48:47.951Z,2.65
2022-11-08T05:51:16.421Z,2.75
2022-11-08T05:53:43.279Z,3.15
2022-11-08T05:56:10.089Z,3.03
2022-11-08T05:58:37.055Z,3.25
2022-11-08T06:01:06.137Z,3.53
2022-11-08T06:03:33.641Z,2.63
2022-11-08T06:06:08.039Z,2.42
2022-11-08T06:08:35.437Z,2.60
2022-11-08T06:11:10.717Z,2.50
2022-11-08T06:13:37.709Z,2.45
2022-11-08T06:16:09.926Z,2.95
2022-11-08T06:18:37.596Z,4.68
2022-11-08T06:21:06.059Z,3.58
2022-11-08T06:23:33.498Z,4.72
2022-11-08T06:26:00.962Z,5.68
2022-11-08T06:28:27.701Z,4.00
2022-11-08T06:30:54.596Z,4.10
2022-11-08T06:33:21.834Z,3.38
2022-11-08T06:35:48.693Z,3.55
2022-11-08T06:38:15.342Z,2.97
2022-11-08T06:40:42.556Z,2.75
2022-11-08T06:43:16.451Z,2.45
2022-11-08T06:45:45.938Z,2.97
2022-11-08T06:48:12.574Z,2.20
2022-11-08T06:50:39.223Z,2.40
2022-11-08T06:53:07.648Z,2.58
2022-11-08T06:55:35.366Z,2.70
2022-11-08T06:58:02.794Z,2.88
2022-11-08T07:00:29.567Z,2.75
2022-11-08T07:02:58.569Z,3.28
2022-11-08T07:05:26.843Z,3.65
2022-11-08T07:07:53.897Z,2.60
2022-11-08T07:10:22.923Z,2.83
2022-11-08T07:12:57.882Z,3.20
2022-11-08T07:15:24.524Z,3.20
2022-11-08T07:17:51.197Z,2.92
2022-11-08T07:20:17.878Z,3.70
2022-11-08T07:22:44.519Z,3.65
2022-11-08T07:25:11.176Z,3.80
2022-11-08T07:27:37.832Z,3.50
2022-11-08T07:30:05.971Z,3.20
2022-11-08T07:32:32.639Z,3.53
2022-11-08T07:34:59.267Z,3.30
2022-11-08T07:37:25.918Z,3.85
2022-11-08T07:39:52.544Z,3.47
2022-11-08T07:42:19.339Z,3.22
2022-11-08T07:44:45.971Z,4.45
2022-11-08T07:47:12.628Z,3.95
2022-11-08T07:49:39.250Z,3.65
2022-11-08T07:52:05.896Z,3.80
2022-11-08T07:54:32.728Z,4.10
2022-11-08T07:56:59.525Z,3.95
2022-11-08T07:59:26.163Z,3.75
2022-11-08T08:01:52.929Z,3.85
2022-11-08T08:04:19.613Z,4.03
2022-11-08T08:06:46.254Z,3.60
2022-11-08T08:09:12.875Z,3.47
2022-11-08T08:11:39.648Z,3.55
2022-11-08T08:14:06.303Z,2.97
2022-11-08T08:16:33.024Z,2.80
2022-11-08T08:18:59.663Z,2.67
2022-11-08T08:21:26.345Z,2.30
2022-11-08T08:23:53.159Z,2.83
2022-11-08T08:26:19.813Z,2.40
2022-11-08T08:28:46.451Z,2.70
2022-11-08T08:31:13.148Z,2.03
2022-11-08T08:33:40.010Z,2.90
2022-11-08T08:36:07.110Z,2.35
2022-11-08T08:38:34.358Z,2.00
2022-11-08T08:41:02.408Z,2.50
2022-11-08T08:43:32.359Z,3.25
2022-11-08T08:46:03.228Z,3.33
2022-11-08T08:48:30.229Z,3.28
2022-11-08T08:50:57.171Z,3.13
2022-11-08T08:53:23.946Z,3.17
2022-11-08T08:55:53.570Z,3.25
2022-11-08T08:58:21.541Z,3.95
2022-11-08T09:03:36.724Z,3.10
2022-11-08T09:06:03.661Z,3.17
2022-11-08T09:08:30.930Z,3.78
2022-11-08T09:10:59.733Z,4.00
2022-11-08T09:13:27.691Z,4.20
2022-11-08T09:15:55.339Z,4.80
2022-11-08T09:18:22.549Z,4.97
2022-11-08T09:20:49.788Z,5.20
2022-11-08T09:23:17.763Z,4.47
2022-11-08T09:25:45.169Z,5.05
2022-11-08T09:28:11.888Z,4.55
2022-11-08T09:30:38.562Z,6.00
2022-11-08T09:33:05.399Z,4.13
2022-11-08T09:35:32.226Z,4.18
2022-11-08T09:37:59.142Z,4.15
2022-11-08T09:40:55.312Z,4.82
2022-11-08T09:43:30.980Z,4.35
2022-11-08T09:45:58.017Z,3.45
2022-11-08T09:48:34.060Z,3.45
2022-11-08T09:51:25.639Z,1.85
2022-11-08T09:53:52.297Z,3.50
2022-11-08T09:56:23.396Z,2.60
2022-11-08T09:58:54.749Z,1.90
2022-11-08T10:01:26.841Z,0.90
2022-11-08T10:03:57.702Z,0.60
2022-11-08T10:06:33.243Z,0.60
2022-11-08T10:09:14.951Z,1.10
2022-11-08T10:12:16.989Z,1.20
2022-11-08T10:15:12.719Z,1.45
2022-11-08T10:17:42.245Z,1.80
2022-11-08T10:20:08.945Z,1.63
2022-11-08T10:22:49.863Z,1.83
2022-11-08T10:25:25.690Z,1.40
2022-11-08T10:28:01.661Z,1.00
2022-11-08T10:30:37.097Z,1.08
2022-11-08T10:33:19.676Z,1.35
2022-11-08T10:36:11.520Z,0.90
2022-11-08T10:38:46.899Z,0.80
2022-11-08T10:41:25.770Z,1.25
2022-11-08T10:44:04.696Z,1.20
2022-11-08T10:46:53.811Z,1.67
2022-11-08T10:49:32.447Z,2.05
2022-11-08T10:52:01.704Z,1.30
2022-11-08T10:54:51.421Z,1.38
2022-11-08T10:57:33.247Z,0.80
2022-11-08T11:00:28.130Z,0.90
2022-11-08T11:03:02.503Z,0.80
2022-11-08T11:05:35.575Z,0.90
2022-11-08T11:08:08.483Z,0.90
2022-11-08T11:10:47.547Z,0.90
2022-11-08T11:16:00.653Z,0.65
2022-11-08T11:18:36.574Z,0.70
2022-11-08T11:21:18.610Z,0.93
2022-11-08T11:23:53.836Z,0.57
2022-11-08T11:26:29.303Z,1.23
2022-11-08T11:29:05.095Z,0.68
2022-11-08T11:31:37.426Z,0.80
2022-11-08T11:34:19.126Z,0.80
2022-11-08T11:37:05.617Z,1.77
2022-11-08T11:39:35.850Z,1.80
2022-11-08T11:42:44.954Z,1.13
2022-11-08T11:45:30.834Z,1.00
2022-11-08T11:48:02.243Z,1.65
2022-11-08T11:50:37.115Z,1.00
2022-11-08T11:53:28.501Z,0.70
2022-11-08T11:56:22.775Z,0.80
2022-11-08T11:59:27.617Z,0.68
2022-11-08T12:02:12.636Z,0.70
2022-11-08T12:04:48.682Z,1.00
2022-11-08T12:07:24.257Z,0.68
2022-11-08T12:10:18.998Z,0.60
2022-11-08T12:12:58.888Z,0.65
2022-11-08T12:15:41.925Z,0.73
2022-11-08T12:18:43.228Z,0.80
2022-11-08T12:21:52.298Z,0.63
2022-11-08T12:24:30.904Z,0.60
2022-11-08T12:27:06.672Z,0.70
2022-11-08T12:29:43.110Z,0.70
2022-11-08T12:32:09.747Z,0.70
2022-11-08T12:34:54.846Z,0.43
2022-11-08T12:37:35.333Z,0.75
2022-11-08T12:40:33.166Z,1.13
2022-11-08T12:43:19.304Z,0.70
2022-11-08T12:46:00.995Z,0.90
2022-11-08T12:48:36.544Z,1.05
2022-11-08T12:51:23.205Z,0.90
2022-11-08T12:54:17.461Z,0.80
2022-11-08T12:56:48.275Z,0.80
2022-11-08T12:59:36.505Z,0.70
2022-11-08T13:02:04.752Z,0.93
2022-11-08T13:04:47.346Z,0.95
2022-11-08T13:07:33.646Z,1.08
2022-11-08T13:10:12.795Z,0.88
2022-11-08T13:13:16.912Z,1.00
2022-11-08T13:16:08.861Z,0.60
2022-11-08T13:18:45.275Z,0.80
2022-11-08T13:21:30.396Z,0.88
2022-11-08T13:24:14.017Z,0.50
2022-11-08T13:26:43.126Z,0.60
2022-11-08T13:29:30.543Z,0.63
2022-11-08T13:32:00.483Z,0.70
2022-11-08T13:34:50.068Z,0.93
2022-11-08T13:37:48.812Z,0.70
2022-11-08T13:40:34.540Z,0.77
2022-11-08T13:43:16.478Z,0.70
2022-11-08T13:45:44.894Z,1.00
2022-11-08T13:48:22.289Z,0.60
2022-11-08T13:50:53.800Z,0.95
2022-11-08T13:53:20.417Z,1.10
2022-11-08T13:55:47.122Z,1.10
2022-11-08T13:58:36.448Z,1.45
2022-11-08T14:01:22.935Z,1.65
2022-11-08T14:03:53.508Z,1.50
2022-11-08T14:06:25.608Z,1.95
2022-11-08T14:09:17.204Z,2.58
2022-11-08T14:11:55.015Z,5.07
2022-11-08T14:14:35.075Z,6.00
2022-11-08T14:17:34.150Z,5.90
2022-11-08T14:20:39.754Z,5.07
2022-11-08T14:23:24.186Z,3.92
2022-11-08T14:26:00.282Z,2.50
2022-11-08T14:28:40.477Z,2.42
2022-11-08T14:31:28.432Z,1.90
2022-11-08T14:33:55.970Z,1.88
2022-11-08T14:36:24.033Z,1.92
2022-11-08T14:38:56.058Z,1.83
2022-11-08T14:41:26.911Z,1.42
2022-11-08T14:43:55.184Z,1.42
2022-11-08T14:46:24.566Z,1.80
2022-11-08T14:48:59.573Z,2.00
2022-11-08T14:51:26.446Z,1.95
2022-11-08T14:53:54.709Z,1.55
2022-11-08T14:56:26.540Z,1.55
2022-11-08T14:58:55.270Z,1.90
2022-11-08T15:01:25.596Z,2.13
2022-11-08T15:06:33.897Z,2.08
2022-11-08T15:09:01.481Z,1.80
2022-11-08T15:11:31.967Z,1.75
2022-11-08T15:14:09.023Z,2.58
2022-11-08T15:16:43.970Z,2.13
2022-11-08T15:19:42.511Z,1.90
2022-11-08T15:22:28.765Z,2.00
2022-11-08T15:25:23.262Z,2.15
2022-11-08T15:27:54.851Z,2.50
2022-11-08T15:30:23.233Z,4.20
2022-11-08T15:32:50.698Z,3.45
2022-11-08T15:35:32.150Z,2.78
2022-11-08T15:38:01.993Z,2.58
2022-11-08T15:40:31.878Z,2.70
2022-11-08T15:43:00.292Z,2.30
2022-11-08T15:45:33.136Z,1.52
2022-11-08T15:48:21.999Z,2.10
2022-11-08T15:50:49.445Z,1.90
2022-11-08T15:53:16.954Z,2.03
2022-11-08T15:56:00.478Z,1.73
2022-11-08T15:58:32.735Z,1.98
2022-11-08T16:01:01.698Z,2.08
2022-11-08T16:03:28.896Z,3.03
2022-11-08T16:05:56.447Z,2.58
2022-11-08T16:08:23.953Z,2.42
2022-11-08T16:10:53.576Z,2.05
2022-11-08T16:13:31.600Z,2.20
2022-11-08T16:15:59.463Z,2.63
2022-11-08T16:18:26.531Z,2.30
2022-11-08T16:20:53.526Z,2.60
2022-11-08T16:23:20.188Z,2.10
2022-11-08T16:25:50.533Z,2.35
2022-11-08T16:30:46.887Z,2.30
2022-11-08T16:33:20.976Z,3.78
2022-11-08T16:35:48.451Z,4.25
2022-11-08T16:38:15.945Z,3.05
2022-11-08T16:40:42.974Z,2.97
2022-11-08T16:43:12.983Z,2.85
2022-11-08T16:46:03.683Z,3.00
2022-11-08T16:48:27.129Z,3.03
2022-11-08T16:51:02.296Z,3.30
2022-11-08T16:53:29.829Z,3.20
2022-11-08T16:55:57.241Z,3.75
2022-11-08T16:58:24.777Z,3.28
2022-11-08T17:00:51.894Z,3.30
2022-11-08T17:03:24.493Z,3.15
2022-11-08T17:05:52.202Z,3.15
2022-11-08T17:08:19.350Z,3.75
2022-11-08T17:10:46.186Z,3.88
2022-11-08T17:13:18.116Z,3.55
2022-11-08T17:15:45.549Z,3.50
2022-11-08T17:18:14.471Z,3.63
2022-11-08T17:20:41.627Z,3.55
2022-11-08T17:23:09.328Z,3.67
2022-11-08T17:25:37.968Z,3.22
2022-11-08T17:28:04.907Z,3.13
2022-11-08T17:30:32.010Z,4.00
2022-11-08T17:32:58.640Z,2.97
2022-11-08T17:35:48.594Z,3.10
2022-11-08T17:38:15.227Z,2.70
2022-11-08T17:40:42.381Z,3.22
2022-11-08T17:43:09.283Z,2.65
2022-11-08T17:45:35.939Z,2.47
2022-11-08T17:48:02.762Z,1.75
2022-11-08T17:50:29.587Z,2.13
2022-11-08T17:52:56.368Z,2.75
2022-11-08T17:55:23.024Z,2.13
2022-11-08T17:57:49.705Z,2.10
2022-11-08T18:00:16.699Z,2.72
2022-11-08T18:02:43.370Z,2.53
2022-11-08T18:05:10.082Z,2.65
2022-11-08T18:07:38.367Z,2.95
2022-11-08T18:10:07.074Z,3.47
2022-11-08T18:12:33.857Z,3.00
2022-11-08T18:15:01.060Z,3.00
2022-11-08T18:17:27.826Z,2.05
2022-11-08T18:19:54.492Z,1.80
2022-11-08T18:22:21.204Z,2.50
2022-11-08T18:24:49.989Z,2.30
2022-11-08T18:27:17.166Z,2.58
2022-11-08T18:29:44.166Z,2.30
2022-11-08T18:32:10.861Z,2.03
2022-11-08T18:34:37.496Z,2.50
2022-11-08T18:37:04.379Z,2.85
2022-11-08T18:39:31.034Z,7.85
2022-11-08T18:41:57.707Z,3.40
2022-11-08T18:44:24.363Z,3.33
2022-11-08T18:46:51.100Z,8.05
2022-11-08T18:49:17.770Z,4.50
2022-11-08T18:51:44.514Z,3.30
2022-11-08T18:54:11.247Z,3.17
2022-11-08T18:56:38.384Z,2.80
2022-11-08T18:59:05.212Z,2.60
2022-11-08T19:01:31.962Z,4.25
2022-11-08T19:03:58.817Z,5.18
2022-11-08T19:06:25.900Z,3.15
2022-11-08T19:08:52.655Z,3.00
2022-11-08T19:11:22.842Z,2.90
2022-11-08T19:13:50.201Z,2.60
2022-11-08T19:16:19.609Z,2.95
2022-11-08T19:18:49.100Z,3.73
2022-11-08T19:21:20.070Z,4.13
2022-11-08T19:23:47.762Z,4.90
2022-11-08T19:26:22.789Z,3.28
2022-11-08T19:28:50.346Z,3.22
2022-11-08T19:31:19.193Z,4.55
2022-11-08T19:33:47.268Z,4.90
2022-11-08T19:36:17.006Z,3.60
2022-11-08T19:38:44.612Z,6.32
2022-11-08T19:41:18.437Z,4.80
2022-11-08T19:43:46.716Z,3.97
2022-11-08T19:46:16.215Z,3.40
2022-11-08T19:48:44.767Z,3.43
2022-11-08T19:51:16.599Z,3.40
2022-11-08T19:53:44.058Z,4.18
2022-11-08T19:56:14.553Z,4.80
2022-11-08T19:58:41.810Z,4.03
2022-11-08T20:01:17.575Z,4.95
2022-11-08T20:03:44.554Z,4.95
2022-11-08T20:06:11.988Z,5.55
2022-11-08T20:08:39.288Z,5.38
2022-11-08T20:11:14.164Z,4.30
2022-11-08T20:13:40.836Z,4.25
2022-11-08T20:16:24.193Z,4.30
2022-11-08T20:18:50.930Z,5.45
2022-11-08T20:21:18.037Z,4.35
2022-11-08T20:23:45.885Z,4.57
2022-11-08T20:26:18.300Z,4.55
2022-11-08T20:28:55.171Z,4.55
2022-11-08T20:31:23.225Z,4.28
2022-11-08T20:33:53.087Z,3.83
2022-11-08T20:36:24.121Z,4.72
2022-11-08T20:38:56.195Z,3.88
2022-11-08T20:41:23.136Z,4.00
2022-11-08T20:43:49.814Z,4.20
2022-11-08T20:46:21.007Z,3.95
2022-11-08T20:48:51.874Z,3.58
2022-11-08T20:51:20.810Z,2.95
2022-11-08T20:53:48.438Z,3.60
2022-11-08T20:56:18.183Z,3.60
2022-11-08T20:58:46.153Z,3.40
2022-11-08T21:01:15.662Z,5.68
2022-11-08T21:03:43.214Z,4.82
2022-11-08T21:06:11.862Z,6.05
2022-11-08T21:11:25.684Z,4.32
2022-11-08T21:13:52.382Z,3.70
2022-11-08T21:16:29.867Z,5.68
2022-11-08T21:18:59.035Z,4.22
2022-11-08T21:21:26.198Z,4.65
2022-11-08T21:23:54.284Z,5.07
2022-11-08T21:26:22.095Z,3.50
2022-11-08T21:28:49.016Z,3.03
2022-11-08T21:31:15.753Z,2.90
2022-11-08T21:33:42.581Z,3.92
